createdAt,value
2023-02-07T00:01:37.103Z,7.80
2023-02-07T00:04:39.183Z,4.88
2023-02-07T00:07:41.726Z,4.07
2023-02-07T00:10:43.786Z,5.60
2023-02-07T00:13:46.324Z,4.85
2023-02-07T00:16:48.299Z,6.73
2023-02-07T00:19:50.427Z,7.55
2023-02-07T00:22:52.745Z,7.20
2023-02-07T00:25:54.735Z,6.05
2023-02-07T00:28:56.927Z,7.28
2023-02-07T00:31:58.996Z,8.30
2023-02-07T00:35:01.374Z,9.82
2023-02-07T00:38:03.603Z,8.67
2023-02-07T00:41:05.936Z,7.90
2023-02-07T00:44:08.083Z,8.35
2023-02-07T00:47:10.099Z,8.27
2023-02-07T00:50:13.431Z,6.65
2023-02-07T00:53:15.415Z,7.22
2023-02-07T00:56:17.800Z,7.60
2023-02-07T00:59:19.816Z,6.80
2023-02-07T01:02:21.809Z,8.05
2023-02-07T01:05:24.476Z,8.68
2023-02-07T01:08:26.551Z,6.83
2023-02-07T01:11:29.184Z,9.85
2023-02-07T01:14:31.805Z,5.70
2023-02-07T01:17:34.060Z,8.47
2023-02-07T01:20:36.636Z,8.75
2023-02-07T01:23:39.283Z,7.57
2023-02-07T01:26:41.915Z,9.48
2023-02-07T01:29:44.077Z,6.72
2023-02-07T01:32:46.120Z,13.27
2023-02-07T01:35:48.106Z,5.35
2023-02-07T01:38:51.731Z,9.67
2023-02-07T01:41:53.750Z,11.88
2023-02-07T01:44:59.447Z,9.65
2023-02-07T01:48:07.347Z,10.90
2023-02-07T01:51:09.363Z,8.75
2023-02-07T01:54:13.259Z,8.48
2023-02-07T01:57:17.057Z,2.67
2023-02-07T02:00:19.319Z,12.35
2023-02-07T02:03:21.758Z,9.18
2023-02-07T02:06:25.406Z,5.72
2023-02-07T02:09:27.507Z,9.27
2023-02-07T02:12:43.515Z,8.75
2023-02-07T02:15:56.167Z,8.70
2023-02-07T02:19:07.518Z,11.27
2023-02-07T02:22:12.891Z,6.63
2023-02-07T02:25:15.874Z,12.00
2023-02-07T02:28:17.848Z,16.30
2023-02-07T02:31:19.931Z,20.10
2023-02-07T02:34:33.148Z,21.35
2023-02-07T02:37:42.638Z,20.77
2023-02-07T02:40:50.750Z,17.77
2023-02-07T02:43:53.365Z,17.27
2023-02-07T02:46:57.460Z,12.63
2023-02-07T02:49:59.543Z,12.83
2023-02-07T02:53:01.595Z,5.75
2023-02-07T02:56:06.469Z,10.70
2023-02-07T02:59:12.857Z,4.20
2023-02-07T03:02:15.445Z,7.32
2023-02-07T03:05:18.031Z,12.07
2023-02-07T03:08:46.990Z,14.30
2023-02-07T03:11:53.970Z,9.67
2023-02-07T03:14:55.943Z,11.88
2023-02-07T03:18:01.662Z,12.82
2023-02-07T03:21:08.636Z,10.30
2023-02-07T03:24:13.989Z,14.30
2023-02-07T03:27:18.365Z,12.00
2023-02-07T03:30:21.800Z,11.60
2023-02-07T03:33:24.133Z,14.15
2023-02-07T03:36:31.309Z,9.23
2023-02-07T03:39:33.365Z,11.63
2023-02-07T03:42:35.399Z,15.90
2023-02-07T03:45:37.693Z,12.50
2023-02-07T03:48:39.835Z,12.40
2023-02-07T03:51:41.888Z,12.17
2023-02-07T03:54:43.985Z,12.00
2023-02-07T03:57:46.103Z,13.75
2023-02-07T04:00:48.127Z,8.35
2023-02-07T04:03:50.197Z,9.27
2023-02-07T04:06:52.330Z,13.43
2023-02-07T04:09:54.662Z,13.70
2023-02-07T04:12:56.683Z,16.53
2023-02-07T04:15:58.834Z,13.82
2023-02-07T04:19:00.906Z,10.48
2023-02-07T04:22:02.963Z,13.23
2023-02-07T04:25:05.192Z,12.63
2023-02-07T04:28:07.500Z,11.68
2023-02-07T04:31:09.609Z,14.45
2023-02-07T04:34:13.122Z,13.50
2023-02-07T04:37:15.165Z,12.07
2023-02-07T04:40:17.805Z,13.85
2023-02-07T04:43:19.882Z,12.80
2023-02-07T04:46:21.867Z,11.95
2023-02-07T04:49:23.935Z,11.18
2023-02-07T04:52:25.948Z,9.27
2023-02-07T04:55:28.067Z,10.80
2023-02-07T04:58:30.071Z,8.45
2023-02-07T05:01:32.340Z,12.07
2023-02-07T05:04:34.470Z,13.32
2023-02-07T05:07:36.707Z,10.63
2023-02-07T05:10:39.114Z,13.88
2023-02-07T05:13:41.115Z,9.63
2023-02-07T05:16:43.156Z,12.90
2023-02-07T05:19:45.301Z,10.10
2023-02-07T05:22:47.320Z,14.33
2023-02-07T05:25:49.580Z,14.60
2023-02-07T05:28:51.558Z,13.02
2023-02-07T05:32:11.879Z,13.25
2023-02-07T05:35:13.915Z,13.30
2023-02-07T05:38:17.098Z,14.25
2023-02-07T05:41:19.138Z,16.45
2023-02-07T05:44:21.139Z,16.10
2023-02-07T05:47:23.152Z,18.50
2023-02-07T05:50:25.238Z,16.73
2023-02-07T05:53:39.393Z,16.87
2023-02-07T05:56:41.423Z,16.70
2023-02-07T05:59:43.418Z,17.20
2023-02-07T06:02:45.763Z,14.85
2023-02-07T06:05:47.767Z,13.98
2023-02-07T06:08:49.786Z,11.77
2023-02-07T06:11:51.966Z,13.82
2023-02-07T06:14:54.015Z,13.93
2023-02-07T06:17:56.196Z,14.82
2023-02-07T06:20:58.233Z,12.27
2023-02-07T06:24:00.231Z,15.70
2023-02-07T06:27:02.370Z,12.35
2023-02-07T06:30:04.587Z,15.55
2023-02-07T06:33:06.828Z,20.73
2023-02-07T06:36:09.124Z,15.20
2023-02-07T06:39:11.554Z,19.35
2023-02-07T06:42:13.594Z,26.75
2023-02-07T06:45:16.029Z,23.43
2023-02-07T06:48:18.193Z,22.20
2023-02-07T06:51:20.293Z,16.20
2023-02-07T06:54:22.489Z,14.83
2023-02-07T06:57:24.600Z,21.30
2023-02-07T07:00:26.869Z,15.40
2023-02-07T07:03:29.617Z,18.38
2023-02-07T07:06:32.151Z,16.73
2023-02-07T07:09:35.118Z,13.95
2023-02-07T07:12:37.212Z,16.10
2023-02-07T07:15:39.512Z,22.33
2023-02-07T07:18:42.099Z,19.05
2023-02-07T07:21:44.239Z,22.63
2023-02-07T07:24:46.860Z,17.87
2023-02-07T07:27:49.148Z,18.80
2023-02-07T07:30:51.264Z,20.52
2023-02-07T07:33:54.810Z,19.63
2023-02-07T07:36:57.020Z,16.50
2023-02-07T07:39:59.613Z,18.23
2023-02-07T07:43:02.047Z,14.95
2023-02-07T07:46:18.886Z,23.73
2023-02-07T07:49:21.122Z,23.02
2023-02-07T07:52:23.254Z,27.35
2023-02-07T07:55:25.534Z,24.27
2023-02-07T07:58:29.027Z,29.00
2023-02-07T08:01:31.385Z,20.25
2023-02-07T08:04:34.353Z,21.20
2023-02-07T08:07:36.430Z,20.63
2023-02-07T08:10:39.128Z,21.80
2023-02-07T08:13:41.364Z,22.25
2023-02-07T08:16:43.493Z,19.73
2023-02-07T08:19:45.638Z,23.38
2023-02-07T08:22:47.791Z,17.75
2023-02-07T08:25:50.277Z,22.63
2023-02-07T08:28:52.537Z,20.48
2023-02-07T08:31:54.720Z,19.58
2023-02-07T08:34:56.855Z,15.85
2023-02-07T08:37:58.968Z,15.05
2023-02-07T08:41:01.430Z,18.73
2023-02-07T08:44:03.617Z,16.23
2023-02-07T08:47:05.793Z,15.00
2023-02-07T08:50:08.226Z,13.38
2023-02-07T08:53:10.473Z,12.75
2023-02-07T08:56:12.568Z,11.63
2023-02-07T08:59:14.657Z,11.77
2023-02-07T09:02:17.044Z,10.70
2023-02-07T09:05:19.362Z,9.77
2023-02-07T09:08:21.555Z,7.05
2023-02-07T09:11:23.898Z,11.25
2023-02-07T09:14:26.221Z,11.40
2023-02-07T09:17:28.265Z,12.07
2023-02-07T09:20:30.313Z,11.75
2023-02-07T09:23:33.725Z,13.82
2023-02-07T09:26:35.953Z,14.33
2023-02-07T09:29:38.232Z,14.30
2023-02-07T09:32:40.320Z,15.98
2023-02-07T09:35:44.179Z,13.85
2023-02-07T09:38:47.142Z,12.07
2023-02-07T09:41:58.506Z,15.68
2023-02-07T09:45:08.707Z,16.08
2023-02-07T09:48:19.893Z,9.57
2023-02-07T09:51:23.969Z,12.20
2023-02-07T09:54:29.231Z,12.70
2023-02-07T09:57:38.118Z,11.77
2023-02-07T10:00:41.106Z,10.25
2023-02-07T10:04:03.671Z,11.45
2023-02-07T10:07:07.650Z,11.95
2023-02-07T10:10:23.774Z,17.88
2023-02-07T10:13:28.787Z,10.55
2023-02-07T10:16:49.637Z,9.75
2023-02-07T10:20:13.105Z,8.37
2023-02-07T10:23:32.794Z,10.57
2023-02-07T10:26:38.255Z,10.52
2023-02-07T10:29:59.908Z,11.13
2023-02-07T10:33:29.039Z,6.30
2023-02-07T10:36:33.873Z,9.55
2023-02-07T10:39:40.554Z,9.20
2023-02-07T10:42:43.865Z,6.20
2023-02-07T10:45:49.879Z,8.90
2023-02-07T10:48:53.932Z,5.82
2023-02-07T10:51:57.738Z,6.03
2023-02-07T10:55:01.036Z,7.25
2023-02-07T10:58:17.850Z,7.93
2023-02-07T11:01:25.973Z,7.60
2023-02-07T11:04:34.897Z,6.30
2023-02-07T11:07:47.743Z,7.22
2023-02-07T11:10:51.368Z,7.32
2023-02-07T11:13:55.608Z,7.97
2023-02-07T11:16:58.629Z,6.50
2023-02-07T11:20:03.964Z,7.40
2023-02-07T11:23:14.703Z,6.63
2023-02-07T11:26:19.234Z,5.13
2023-02-07T11:29:22.683Z,4.20
2023-02-07T11:32:29.923Z,7.33
2023-02-07T11:35:32.684Z,7.40
2023-02-07T11:38:47.992Z,8.88
2023-02-07T11:41:56.057Z,9.00
2023-02-07T11:45:03.189Z,8.85
2023-02-07T11:48:06.356Z,8.32
2023-02-07T11:51:10.126Z,12.05
2023-02-07T11:54:14.076Z,11.70
2023-02-07T11:57:16.973Z,9.38
2023-02-07T12:00:22.309Z,7.20
2023-02-07T12:03:50.919Z,7.30
2023-02-07T12:06:57.644Z,8.07
2023-02-07T12:10:00.856Z,7.55
2023-02-07T12:13:14.644Z,5.90
2023-02-07T12:16:23.545Z,6.82
2023-02-07T12:19:33.318Z,6.63
2023-02-07T12:22:42.080Z,5.95
2023-02-07T12:25:50.215Z,5.63
2023-02-07T12:29:01.311Z,5.82
2023-02-07T12:32:16.696Z,6.57
2023-02-07T12:35:25.012Z,6.60
2023-02-07T12:38:37.867Z,7.40
2023-02-07T12:41:40.173Z,7.18
2023-02-07T12:44:52.175Z,6.30
2023-02-07T12:47:57.558Z,7.65
2023-02-07T12:51:24.560Z,5.60
2023-02-07T12:54:30.190Z,5.78
2023-02-07T12:57:32.317Z,7.85
2023-02-07T13:00:53.324Z,6.53
2023-02-07T13:04:01.997Z,6.00
2023-02-07T13:07:24.556Z,7.80
2023-02-07T13:10:36.706Z,5.85
2023-02-07T13:13:42.137Z,8.63
2023-02-07T13:16:44.576Z,7.35
2023-02-07T13:20:15.890Z,6.17
2023-02-07T13:23:19.522Z,6.88
2023-02-07T13:26:22.429Z,6.75
2023-02-07T13:29:25.100Z,9.53
2023-02-07T13:32:28.057Z,6.47
2023-02-07T13:35:32.868Z,6.13
2023-02-07T13:38:52.225Z,6.78
2023-02-07T13:42:08.678Z,7.07
2023-02-07T13:45:28.960Z,6.87
2023-02-07T13:48:46.341Z,7.07
2023-02-07T13:52:03.294Z,7.85
2023-02-07T13:55:11.338Z,6.53
2023-02-07T13:58:51.303Z,5.57
2023-02-07T14:01:54.682Z,5.00
2023-02-07T14:04:57.589Z,5.20
2023-02-07T14:07:59.707Z,6.23
2023-02-07T14:11:20.396Z,6.18
2023-02-07T14:14:28.166Z,6.90
2023-02-07T14:17:30.349Z,4.22
2023-02-07T14:20:38.500Z,5.90
2023-02-07T14:23:59.528Z,4.93
2023-02-07T14:27:02.194Z,5.40
2023-02-07T14:30:13.297Z,5.17
2023-02-07T14:33:33.970Z,6.55
2023-02-07T14:36:36.017Z,5.75
2023-02-07T14:39:38.216Z,5.27
2023-02-07T14:42:40.342Z,5.03
2023-02-07T14:45:51.372Z,6.72
2023-02-07T14:48:54.961Z,4.05
2023-02-07T14:52:12.259Z,4.65
2023-02-07T14:55:19.098Z,5.75
2023-02-07T14:58:27.888Z,4.50
2023-02-07T15:01:30.034Z,4.87
2023-02-07T15:04:35.024Z,5.05
2023-02-07T15:07:37.143Z,5.90
2023-02-07T15:10:54.275Z,5.53
2023-02-07T15:13:57.611Z,5.85
2023-02-07T15:17:00.719Z,6.28
2023-02-07T15:20:02.795Z,6.93
2023-02-07T15:23:07.542Z,5.60
2023-02-07T15:26:09.677Z,8.00
2023-02-07T15:29:20.299Z,6.68
2023-02-07T15:32:29.956Z,8.40
2023-02-07T15:35:37.230Z,8.63
2023-02-07T15:38:39.623Z,6.13
2023-02-07T15:41:41.817Z,8.33
2023-02-07T15:44:53.961Z,7.25
2023-02-07T15:47:57.094Z,10.63
2023-02-07T15:51:01.713Z,15.98
2023-02-07T15:54:03.806Z,16.80
2023-02-07T15:57:09.998Z,15.27
2023-02-07T16:00:22.957Z,13.77
2023-02-07T16:03:30.811Z,13.30
2023-02-07T16:06:33.174Z,11.40
2023-02-07T16:09:40.744Z,13.05
2023-02-07T16:12:44.616Z,13.73
2023-02-07T16:16:00.434Z,14.68
2023-02-07T16:19:14.748Z,16.92
2023-02-07T16:22:18.833Z,16.10
2023-02-07T16:25:23.012Z,16.67
2023-02-07T16:28:25.126Z,19.67
2023-02-07T16:31:27.398Z,27.23
2023-02-07T16:34:29.486Z,36.07
2023-02-07T16:37:31.639Z,34.92
2023-02-07T16:40:33.701Z,31.90
2023-02-07T16:43:37.520Z,28.23
2023-02-07T16:46:39.650Z,19.00
2023-02-07T16:49:43.891Z,20.75
2023-02-07T16:52:46.979Z,18.25
2023-02-07T16:55:49.083Z,13.90
2023-02-07T16:58:51.222Z,15.45
2023-02-07T17:01:54.197Z,20.58
2023-02-07T17:04:56.287Z,22.20
2023-02-07T17:07:58.326Z,25.25
2023-02-07T17:11:01.750Z,24.73
2023-02-07T17:14:03.862Z,21.67
2023-02-07T17:17:05.918Z,19.00
2023-02-07T17:20:27.127Z,18.13
2023-02-07T17:23:29.198Z,15.32
2023-02-07T17:26:32.048Z,19.05
2023-02-07T17:29:34.099Z,23.40
2023-02-07T17:32:36.115Z,30.23
2023-02-07T17:35:38.918Z,25.10
2023-02-07T17:38:41.267Z,19.77
2023-02-07T17:41:43.535Z,23.92
2023-02-07T17:44:45.582Z,26.60
2023-02-07T17:47:47.870Z,25.15
2023-02-07T17:50:49.976Z,28.75
2023-02-07T17:53:52.307Z,42.80
2023-02-07T17:56:55.708Z,36.95
2023-02-07T17:59:57.808Z,31.20
2023-02-07T18:03:00.083Z,26.45
2023-02-07T18:06:02.165Z,21.37
2023-02-07T18:09:04.219Z,25.00
2023-02-07T18:12:06.303Z,28.83
2023-02-07T18:15:09.169Z,25.53
2023-02-07T18:18:12.572Z,26.95
2023-02-07T18:21:14.648Z,24.58
2023-02-07T18:24:16.716Z,23.55
2023-02-07T18:27:18.766Z,27.30
2023-02-07T18:30:22.022Z,29.23
2023-02-07T18:33:24.011Z,36.45
2023-02-07T18:36:26.855Z,31.43
2023-02-07T18:39:28.905Z,54.97
2023-02-07T18:42:30.944Z,43.35
2023-02-07T18:45:35.523Z,35.47
2023-02-07T18:48:37.704Z,31.88
2023-02-07T18:51:39.785Z,21.52
2023-02-07T18:54:41.978Z,26.42
2023-02-07T18:57:44.025Z,22.48
2023-02-07T19:00:46.000Z,27.17
2023-02-07T19:03:51.467Z,26.42
2023-02-07T19:06:53.560Z,29.50
2023-02-07T19:09:55.629Z,31.63
2023-02-07T19:12:57.583Z,28.73
2023-02-07T19:16:04.045Z,36.17
2023-02-07T19:19:06.246Z,29.30
2023-02-07T19:22:08.267Z,34.30
2023-02-07T19:25:10.369Z,35.33
2023-02-07T19:28:12.799Z,35.10
2023-02-07T19:31:18.068Z,34.47
2023-02-07T19:34:20.301Z,31.30
2023-02-07T19:37:22.628Z,27.23
2023-02-07T19:40:24.653Z,30.38
2023-02-07T19:43:26.968Z,30.75
2023-02-07T19:46:29.174Z,37.03
2023-02-07T19:49:31.245Z,33.38
2023-02-07T19:52:33.373Z,36.88
2023-02-07T19:55:38.179Z,37.80
2023-02-07T19:58:42.051Z,42.58
2023-02-07T20:01:44.199Z,48.67
2023-02-07T20:04:46.212Z,43.08
2023-02-07T20:07:48.244Z,45.67
2023-02-07T20:10:50.316Z,51.22
2023-02-07T20:13:53.371Z,49.13
2023-02-07T20:16:55.443Z,49.30
2023-02-07T20:19:57.524Z,54.70
2023-02-07T20:22:59.569Z,54.80
2023-02-07T20:26:02.574Z,60.25
2023-02-07T20:29:06.852Z,53.45
2023-02-07T20:32:12.722Z,53.00
2023-02-07T20:35:14.843Z,48.92
2023-02-07T20:38:16.868Z,35.50
2023-02-07T20:41:29.907Z,37.70
2023-02-07T20:44:31.977Z,29.92
2023-02-07T20:47:34.018Z,27.40
2023-02-07T20:50:36.031Z,24.65
2023-02-07T20:53:39.081Z,28.48
2023-02-07T20:56:41.548Z,28.23
2023-02-07T20:59:43.552Z,31.10
2023-02-07T21:02:45.611Z,27.40
2023-02-07T21:05:47.642Z,26.23
2023-02-07T21:08:53.284Z,30.93
2023-02-07T21:11:55.626Z,34.50
2023-02-07T21:14:57.724Z,26.90
2023-02-07T21:17:59.834Z,29.00
2023-02-07T21:21:06.032Z,20.17
2023-02-07T21:24:08.284Z,22.83
2023-02-07T21:27:10.355Z,20.48
2023-02-07T21:30:12.666Z,15.90
2023-02-07T21:33:14.786Z,10.02
2023-02-07T21:36:18.953Z,11.18
2023-02-07T21:39:21.344Z,9.63
2023-02-07T21:42:23.359Z,13.85
2023-02-07T21:45:25.370Z,11.60
2023-02-07T21:48:27.389Z,9.60
2023-02-07T21:51:30.716Z,13.73
2023-02-07T21:54:34.246Z,14.77
2023-02-07T21:57:36.268Z,15.15
2023-02-07T22:00:38.582Z,15.55
2023-02-07T22:03:41.679Z,13.57
2023-02-07T22:06:44.579Z,7.25
2023-02-07T22:09:46.627Z,11.47
2023-02-07T22:12:48.611Z,15.63
2023-02-07T22:15:51.165Z,16.80
2023-02-07T22:18:53.542Z,17.17
2023-02-07T22:21:55.601Z,15.40
2023-02-07T22:24:57.638Z,19.88
2023-02-07T22:27:59.663Z,8.50
2023-02-07T22:31:01.837Z,17.52
2023-02-07T22:34:05.478Z,13.55
2023-02-07T22:37:07.709Z,12.43
2023-02-07T22:40:10.053Z,17.77
2023-02-07T22:43:13.319Z,15.15
2023-02-07T22:46:16.895Z,13.77
2023-02-07T22:49:19.302Z,14.03
2023-02-07T22:52:21.328Z,8.35
2023-02-07T22:55:23.330Z,10.57
2023-02-07T22:58:25.303Z,13.40
2023-02-07T23:01:34.507Z,13.90
2023-02-07T23:04:36.546Z,14.40
2023-02-07T23:07:38.586Z,8.48
2023-02-07T23:10:41.760Z,16.70
2023-02-07T23:13:44.154Z,13.95
2023-02-07T23:16:46.209Z,17.15
2023-02-07T23:19:48.234Z,15.83
2023-02-07T23:22:50.865Z,13.60
2023-02-07T23:25:52.883Z,16.85
2023-02-07T23:28:54.847Z,16.45
2023-02-07T23:31:56.959Z,14.18
2023-02-07T23:34:59.020Z,15.82
2023-02-07T23:38:01.586Z,15.30
2023-02-07T23:41:03.955Z,15.73
2023-02-07T23:44:05.970Z,15.50
2023-02-07T23:47:08.028Z,11.20
2023-02-07T23:50:10.012Z,14.47
2023-02-07T23:53:12.016Z,5.57
2023-02-07T23:56:15.410Z,11.25
2023-02-07T23:59:17.416Z,11.25
